Time;durP1;ratioP1;P1;durP2;ratioP2;P2;SDS_P1;SDS_P2;PMS_P1;PMS_P2;Temp;Humidity;BMP_temperature;BMP_pressure;BME280_temperature;BME280_humidity;BME280_pressure;Samples;Min_cycle;Max_cycle;Signal;HPM_P1;HPM_P2
2021/03/03 00:02:24;;;;;;;4.13;3.78;;;30.00;86.70;;;;;;5130338;27;20198;-48
2021/03/03 00:04:55;;;;;;;4.78;3.20;;;30.00;86.80;;;;;;5130139;27;20756;-48
2021/03/03 00:07:26;;;;;;;2.95;2.75;;;30.00;86.90;;;;;;5130691;27;20197;-48
2021/03/03 00:09:56;;;;;;;3.90;2.90;;;30.00;86.90;;;;;;5130832;27;20768;-47
2021/03/03 00:12:26;;;;;;;3.10;2.80;;;30.00;87.00;;;;;;5128221;27;20210;-49
2021/03/03 00:14:57;;;;;;;3.65;2.63;;;30.00;87.10;;;;;;5124072;27;20235;-52
2021/03/03 00:17:29;;;;;;;3.33;3.05;;;30.00;87.30;;;;;;5118813;27;20196;-51
2021/03/03 00:20:00;;;;;;;4.82;3.20;;;30.00;87.50;;;;;;5128756;27;20442;-50
2021/03/03 00:22:31;;;;;;;3.60;3.28;;;30.10;87.50;;;;;;5119363;27;20227;-49
2021/03/03 00:25:01;;;;;;;3.38;3.08;;;30.10;87.50;;;;;;5130569;27;20215;-50
2021/03/03 00:27:32;;;;;;;3.63;3.03;;;30.10;87.60;;;;;;5122012;27;20228;-48
2021/03/03 00:30:18;;;;;;;4.40;2.95;;;30.20;87.80;;;;;;5117612;27;20187;-51
2021/03/03 00:32:51;;;;;;;3.25;3.00;;;30.20;87.90;;;;;;5115651;27;20191;-50
2021/03/03 00:35:22;;;;;;;3.28;2.85;;;30.20;88.00;;;;;;5120732;27;20282;-47
2021/03/03 00:37:52;;;;;;;3.05;2.75;;;30.20;88.10;;;;;;5113010;27;20241;-53
2021/03/03 00:40:23;;;;;;;3.22;2.92;;;30.20;88.30;;;;;;5123246;27;20196;-47
2021/03/03 00:42:55;;;;;;;2.83;2.53;;;30.30;88.40;;;;;;5118080;27;20732;-47
2021/03/03 00:45:26;;;;;;;3.65;2.90;;;30.40;88.50;;;;;;5115536;27;20235;-48
2021/03/03 00:48:00;;;;;;;2.97;2.78;;;30.40;88.40;;;;;;5113707;27;20675;-48
2021/03/03 00:50:31;;;;;;;3.20;2.90;;;30.50;88.60;;;;;;5118606;27;20833;-47
2021/03/03 00:53:02;;;;;;;3.17;2.42;;;30.50;88.50;;;;;;5123915;27;20271;-50
2021/03/03 00:55:32;;;;;;;3.33;3.03;;;30.60;88.50;;;;;;5111028;27;20228;-49
2021/03/03 00:58:03;;;;;;;3.78;3.33;;;30.60;88.40;;;;;;5117211;27;20202;-47
2021/03/03 01:00:36;;;;;;;4.20;3.80;;;30.60;88.40;;;;;;5116768;27;20861;-49
2021/03/03 01:03:09;;;;;;;4.00;3.60;;;30.70;88.60;;;;;;5115613;27;20192;-47
2021/03/03 01:05:42;;;;;;;3.70;3.40;;;30.70;88.70;;;;;;5113348;27;20227;-47
2021/03/03 01:08:32;;;;;;;3.63;3.28;;;30.80;88.80;;;;;;5121971;27;20206;-48
2021/03/03 01:11:11;;;;;;;3.72;3.30;;;30.80;88.60;;;;;;5112262;27;20206;-49
2021/03/03 01:13:41;;;;;;;3.15;2.85;;;30.80;88.80;;;;;;5115599;27;20658;-48
2021/03/03 01:16:12;;;;;;;4.53;3.45;;;30.90;88.50;;;;;;5114246;27;20188;-48
2021/03/03 01:18:44;;;;;;;3.85;3.53;;;30.90;88.30;;;;;;5117449;27;20315;-47
2021/03/03 01:21:15;;;;;;;4.43;4.03;;;30.90;88.10;;;;;;5127257;27;20198;-48
2021/03/03 01:23:45;;;;;;;5.18;4.57;;;31.00;88.10;;;;;;5127028;27;20226;-48
2021/03/03 01:26:15;;;;;;;5.03;4.53;;;31.00;88.00;;;;;;5128456;28;20205;-49
2021/03/03 01:28:46;;;;;;;3.33;3.00;;;31.00;87.90;;;;;;5128129;28;20199;-49
2021/03/03 01:31:16;;;;;;;3.00;2.80;;;31.10;87.90;;;;;;5128434;28;20239;-48
2021/03/03 01:33:49;;;;;;;2.95;2.60;;;31.20;87.80;;;;;;5113162;28;20263;-50
2021/03/03 01:36:19;;;;;;;3.33;2.95;;;31.20;87.60;;;;;;5115440;28;20199;-50
2021/03/03 01:38:50;;;;;;;3.47;3.15;;;31.30;87.50;;;;;;5109407;27;20661;-51
2021/03/03 01:41:20;;;;;;;3.42;3.15;;;31.40;87.20;;;;;;5112504;27;20206;-48
2021/03/03 01:43:51;;;;;;;5.55;4.78;;;31.40;86.60;;;;;;5136558;27;20326;-49
2021/03/03 01:46:22;;;;;;;5.13;4.57;;;31.50;86.40;;;;;;5125322;28;20199;-49
2021/03/03 01:48:54;;;;;;;5.07;4.43;;;31.60;86.00;;;;;;5128701;28;20673;-47
2021/03/03 01:51:25;;;;;;;4.55;4.07;;;31.70;85.30;;;;;;5128330;28;20396;-48
2021/03/03 01:53:56;;;;;;;5.20;4.72;;;31.70;85.10;;;;;;5125967;27;20199;-50
2021/03/03 01:56:26;;;;;;;4.82;4.43;;;31.80;84.20;;;;;;5118723;27;20207;-53
2021/03/03 01:58:56;;;;;;;4.72;4.30;;;31.80;84.60;;;;;;5121108;27;20203;-52
2021/03/03 02:01:27;;;;;;;5.50;4.20;;;31.90;83.70;;;;;;5127690;27;20256;-51
2021/03/03 02:03:59;;;;;;;5.00;4.60;;;31.90;83.40;;;;;;5129834;27;20217;-48
2021/03/03 02:06:33;;;;;;;5.07;4.57;;;32.00;82.80;;;;;;5126533;27;20290;-50
2021/03/03 02:09:07;;;;;;;5.20;4.63;;;32.10;82.40;;;;;;5117886;27;20209;-53
2021/03/03 02:11:41;;;;;;;5.00;4.50;;;32.10;82.00;;;;;;5124595;27;20585;-52
2021/03/03 02:14:14;;;;;;;4.88;4.45;;;32.20;81.90;;;;;;5111944;27;20228;-48
2021/03/03 02:16:44;;;;;;;5.55;5.05;;;32.20;81.30;;;;;;5116540;27;20211;-49
2021/03/03 02:19:19;;;;;;;5.18;4.68;;;32.20;80.90;;;;;;5129795;27;20226;-52
2021/03/03 02:21:52;;;;;;;7.05;5.40;;;32.30;80.80;;;;;;5116097;27;20211;-53
2021/03/03 02:24:24;;;;;;;5.05;4.22;;;32.30;79.80;;;;;;5119783;27;20223;-49
2021/03/03 02:26:56;;;;;;;6.25;4.80;;;32.30;80.20;;;;;;5128456;27;20208;-48
2021/03/03 02:29:27;;;;;;;5.38;4.60;;;32.30;80.20;;;;;;5129810;27;20562;-50
2021/03/03 02:31:57;;;;;;;4.72;4.25;;;32.30;79.90;;;;;;5128967;27;20668;-48
2021/03/03 02:34:28;;;;;;;5.60;5.10;;;32.30;80.20;;;;;;5124316;27;20195;-48
2021/03/03 02:37:00;;;;;;;6.43;5.60;;;32.30;79.90;;;;;;5111443;27;20199;-47
2021/03/03 02:39:30;;;;;;;6.63;5.00;;;32.40;79.30;;;;;;5113854;27;20203;-47
2021/03/03 02:42:02;;;;;;;5.75;5.20;;;32.40;79.20;;;;;;5115111;27;20287;-48
2021/03/03 02:44:33;;;;;;;4.78;4.38;;;32.40;79.10;;;;;;5115532;27;20305;-47
2021/03/03 02:47:04;;;;;;;4.90;4.38;;;32.40;80.00;;;;;;5054175;28;20210;-48
2021/03/03 02:49:35;;;;;;;6.38;4.72;;;32.50;80.20;;;;;;5053553;28;20209;-49
2021/03/03 02:52:06;;;;;;;6.10;4.93;;;32.60;79.50;;;;;;5017036;28;20246;-50
2021/03/03 02:54:36;;;;;;;4.80;4.40;;;32.70;79.40;;;;;;5013580;28;20629;-50
2021/03/03 02:57:08;;;;;;;5.07;4.68;;;32.80;79.10;;;;;;5018574;28;20251;-52
2021/03/03 02:59:40;;;;;;;5.38;4.93;;;32.80;78.50;;;;;;5018095;28;20677;-52
2021/03/03 03:02:13;;;;;;;5.10;4.70;;;32.90;77.50;;;;;;5019170;28;20281;-47
2021/03/03 03:04:46;;;;;;;4.93;4.53;;;33.00;77.70;;;;;;5013632;28;20231;-48
2021/03/03 03:07:20;;;;;;;5.63;4.53;;;33.00;77.90;;;;;;5013156;28;20306;-50
2021/03/03 03:09:53;;;;;;;5.18;4.68;;;33.10;77.90;;;;;;4958375;28;20221;-50
2021/03/03 03:12:25;;;;;;;5.90;5.03;;;33.10;77.90;;;;;;4992512;28;20208;-48
2021/03/03 03:14:55;;;;;;;5.05;4.55;;;33.00;77.50;;;;;;4993674;28;20220;-48
2021/03/03 03:17:26;;;;;;;5.15;4.75;;;33.00;77.60;;;;;;4995545;28;20295;-50
2021/03/03 03:19:57;;;;;;;4.75;4.07;;;33.00;77.80;;;;;;4994257;28;20220;-48
2021/03/03 03:22:27;;;;;;;4.45;3.97;;;32.90;78.10;;;;;;5014458;28;20214;-48
2021/03/03 03:24:57;;;;;;;6.00;4.80;;;32.90;78.50;;;;;;5052007;28;20257;-49
2021/03/03 03:27:29;;;;;;;4.40;4.00;;;32.80;78.70;;;;;;5054135;28;20194;-47
2021/03/03 03:30:01;;;;;;;5.53;5.03;;;32.90;78.80;;;;;;5053382;28;20244;-49
2021/03/03 03:32:31;;;;;;;7.70;6.18;;;32.90;78.70;;;;;;5061684;28;20605;-51
2021/03/03 03:35:02;;;;;;;6.40;5.80;;;32.90;78.50;;;;;;5053460;28;20219;-53
2021/03/03 03:37:32;;;;;;;7.40;6.50;;;33.00;78.90;;;;;;5053572;28;20200;-51
2021/03/03 03:40:03;;;;;;;6.65;6.05;;;33.00;79.10;;;;;;5044399;28;20696;-51
2021/03/03 03:42:35;;;;;;;6.28;5.70;;;33.00;79.20;;;;;;4997442;28;20224;-52
2021/03/03 03:45:06;;;;;;;7.80;6.97;;;33.10;79.40;;;;;;4997740;28;20625;-50
2021/03/03 03:47:37;;;;;;;8.02;7.28;;;33.10;79.90;;;;;;5002247;28;20240;-52
2021/03/03 03:50:09;;;;;;;6.65;5.90;;;33.10;79.90;;;;;;4997070;28;20219;-48
2021/03/03 03:52:39;;;;;;;7.15;6.35;;;33.10;79.70;;;;;;5004799;28;20241;-50
2021/03/03 03:55:11;;;;;;;6.40;5.72;;;33.10;79.30;;;;;;5006550;28;20206;-48
2021/03/03 03:57:52;;;;;;;5.53;5.03;;;33.10;79.30;;;;;;5005966;28;20203;-49
2021/03/03 04:00:23;;;;;;;5.13;4.30;;;33.00;79.60;;;;;;5007118;28;20200;-48
2021/03/03 04:02:54;;;;;;;7.00;5.93;;;33.00;79.60;;;;;;5006673;28;20768;-47
2021/03/03 04:05:25;;;;;;;6.00;5.38;;;32.90;79.10;;;;;;5005675;28;20316;-49
2021/03/03 04:07:55;;;;;;;6.22;5.63;;;32.90;76.40;;;;;;4995480;28;20199;-47
2021/03/03 04:10:27;;;;;;;6.07;5.13;;;32.80;75.40;;;;;;5008219;28;20207;-47
2021/03/03 04:12:59;;;;;;;6.28;4.22;;;32.80;74.90;;;;;;5008767;28;20214;-49
2021/03/03 04:15:29;;;;;;;4.47;4.07;;;32.70;73.80;;;;;;5103337;27;20235;-48
2021/03/03 04:17:59;;;;;;;5.25;4.13;;;32.60;73.90;;;;;;5131115;27;20632;-49
2021/03/03 04:20:29;;;;;;;3.85;3.28;;;32.50;74.20;;;;;;5131213;27;20208;-47
2021/03/03 04:22:59;;;;;;;4.57;2.50;;;32.30;74.00;;;;;;5131298;27;20207;-49
2021/03/03 04:25:30;;;;;;;3.60;2.58;;;32.20;74.00;;;;;;5131337;27;20710;-47
2021/03/03 04:28:02;;;;;;;2.67;2.10;;;32.20;74.10;;;;;;5128285;27;20196;-47
2021/03/03 04:30:32;;;;;;;2.45;2.00;;;32.10;74.20;;;;;;5130657;27;20192;-48
2021/03/03 04:33:10;;;;;;;2.88;2.30;;;31.90;74.20;;;;;;5130285;27;20279;-48
2021/03/03 04:35:41;;;;;;;2.33;1.92;;;31.90;74.40;;;;;;5129784;27;20202;-48
2021/03/03 04:38:11;;;;;;;5.05;2.50;;;31.80;74.50;;;;;;5129679;27;20248;-47
2021/03/03 04:40:41;;;;;;;4.28;2.40;;;31.70;74.70;;;;;;5119061;27;20191;-48
2021/03/03 04:43:13;;;;;;;4.13;2.80;;;31.70;74.70;;;;;;5130917;27;20597;-47
2021/03/03 04:45:44;;;;;;;3.08;2.50;;;31.60;75.00;;;;;;5130951;27;20215;-50
2021/03/03 04:48:15;;;;;;;5.50;2.72;;;31.50;75.20;;;;;;5130438;27;20192;-47
2021/03/03 04:50:45;;;;;;;3.00;2.65;;;31.40;75.60;;;;;;5128816;27;20272;-51
2021/03/03 04:53:16;;;;;;;3.53;3.15;;;31.40;75.70;;;;;;5129705;27;20243;-53
2021/03/03 04:55:46;;;;;;;3.45;2.85;;;31.30;75.90;;;;;;5130083;27;20673;-53
2021/03/03 04:58:17;;;;;;;4.13;3.15;;;31.20;76.20;;;;;;5130017;27;20602;-48
2021/03/03 05:00:48;;;;;;;4.15;3.03;;;31.20;76.90;;;;;;5127681;27;20192;-48
2021/03/03 05:03:34;;;;;;;6.18;4.43;;;31.10;77.30;;;;;;5129539;27;20258;-51
2021/03/03 05:06:09;;;;;;;7.95;5.20;;;31.10;77.70;;;;;;5129096;27;20301;-53
2021/03/03 05:08:40;;;;;;;6.43;5.20;;;31.10;78.00;;;;;;5129659;27;20195;-51
2021/03/03 05:11:11;;;;;;;9.23;7.20;;;31.10;78.30;;;;;;5129002;27;20646;-52
2021/03/03 05:13:43;;;;;;;10.73;7.95;;;31.10;78.60;;;;;;5129707;27;20211;-47
2021/03/03 05:16:13;;;;;;;7.35;6.65;;;31.20;79.10;;;;;;5130007;27;20773;-48
2021/03/03 05:18:44;;;;;;;6.75;5.25;;;31.20;79.40;;;;;;5129375;27;20227;-47
2021/03/03 05:21:14;;;;;;;6.45;5.57;;;31.30;79.40;;;;;;5129812;27;20192;-47
2021/03/03 05:23:45;;;;;;;6.15;4.65;;;31.40;79.50;;;;;;5118479;27;20206;-50
2021/03/03 05:26:16;;;;;;;4.95;4.40;;;31.40;79.70;;;;;;5130229;27;20203;-48
2021/03/03 05:28:47;;;;;;;5.45;4.68;;;31.50;79.80;;;;;;5129577;27;20682;-48
2021/03/03 05:31:17;;;;;;;4.70;4.30;;;31.60;79.70;;;;;;5130204;28;20210;-48
2021/03/03 05:34:01;;;;;;;5.85;5.28;;;31.70;80.20;;;;;;5119382;28;20194;-46
2021/03/03 05:36:32;;;;;;;5.32;4.72;;;31.90;80.40;;;;;;5131024;28;20250;-51
2021/03/03 05:39:02;;;;;;;5.80;5.30;;;32.00;80.40;;;;;;5130755;28;20199;-49
2021/03/03 05:41:33;;;;;;;5.72;5.32;;;32.10;79.20;;;;;;5130355;28;20282;-48
2021/03/03 05:44:04;;;;;;;5.65;5.20;;;32.20;78.30;;;;;;5130927;28;20258;-47
2021/03/03 05:46:35;;;;;;;6.68;5.65;;;32.30;78.70;;;;;;5066466;28;20250;-49
2021/03/03 05:49:06;;;;;;;8.98;5.93;;;32.40;78.40;;;;;;5067128;28;20541;-50
2021/03/03 05:51:37;;;;;;;8.02;6.70;;;32.40;78.50;;;;;;5066726;28;20974;-47
2021/03/03 05:54:08;;;;;;;6.63;5.97;;;32.50;78.30;;;;;;5065547;28;20219;-48
2021/03/03 05:56:39;;;;;;;6.65;6.05;;;32.60;78.30;;;;;;5067138;28;20962;-48
2021/03/03 05:59:12;;;;;;;6.32;5.50;;;32.60;76.80;;;;;;5067622;28;20201;-50
2021/03/03 06:01:43;;;;;;;5.53;5.00;;;32.70;77.20;;;;;;5067221;28;20209;-47
2021/03/03 06:04:22;;;;;;;5.47;4.88;;;32.80;77.70;;;;;;4986887;28;20312;-49
2021/03/03 06:06:53;;;;;;;5.63;5.15;;;32.80;77.30;;;;;;4989017;28;20222;-48
2021/03/03 06:09:24;;;;;;;5.07;4.65;;;32.80;77.00;;;;;;4991144;28;20852;-52
2021/03/03 06:11:56;;;;;;;5.80;5.15;;;32.90;77.00;;;;;;4990263;28;20239;-51
2021/03/03 06:14:28;;;;;;;7.00;5.50;;;32.90;77.00;;;;;;4988554;28;20970;-47
2021/03/03 06:16:59;;;;;;;5.65;5.15;;;32.90;76.80;;;;;;4994171;28;20210;-47
2021/03/03 06:19:29;;;;;;;5.45;4.95;;;32.90;76.40;;;;;;5048933;28;20343;-47
2021/03/03 06:22:14;;;;;;;6.75;5.70;;;32.80;76.00;;;;;;5048564;28;20208;-53
2021/03/03 06:24:45;;;;;;;6.40;5.80;;;32.80;76.50;;;;;;5000069;28;20237;-47
2021/03/03 06:27:16;;;;;;;6.15;5.55;;;32.80;76.20;;;;;;4924089;29;20304;-47
2021/03/03 06:30:08;;;;;;;6.43;5.78;;;32.70;76.50;;;;;;4955861;28;20217;-48
2021/03/03 06:32:57;;;;;;;7.85;7.15;;;32.70;77.60;;;;;;4950615;28;20209;-47
2021/03/03 06:35:38;;;;;;;8.68;7.70;;;32.60;76.10;;;;;;4977726;28;20207;-47
2021/03/03 06:38:11;;;;;;;8.77;7.97;;;32.60;75.90;;;;;;5006190;28;20596;-48
2021/03/03 06:40:52;;;;;;;9.32;8.43;;;32.50;75.90;;;;;;5003636;28;20242;-48
